createdAt,value
2022-08-11T04:02:54.749Z,57.24
2022-08-11T04:07:54.690Z,56.84
2022-08-11T04:12:54.862Z,56.93
2022-08-11T04:18:01.616Z,56.84
2022-08-11T04:22:54.538Z,57.14
2022-08-11T04:27:54.475Z,56.43
2022-08-11T04:32:54.422Z,56.84
2022-08-11T04:37:54.364Z,56.34
2022-08-11T04:42:54.317Z,56.34
2022-08-11T04:48:03.329Z,56.23
2022-08-11T04:52:55.207Z,56.43
2022-08-11T04:57:54.147Z,55.83
2022-08-11T05:02:54.097Z,55.73
2022-08-11T05:07:54.056Z,55.83
2022-08-11T05:12:53.984Z,55.43
2022-08-11T05:17:53.939Z,54.53
2022-08-11T05:22:53.889Z,53.52
2022-08-11T05:27:53.833Z,53.32
2022-08-11T05:32:58.002Z,46.39
2022-08-11T05:37:53.722Z,41.87
2022-08-11T05:42:53.676Z,41.07
2022-08-11T05:47:53.617Z,41.07
2022-08-11T05:52:55.372Z,41.77
2022-08-11T05:57:53.513Z,41.47
2022-08-11T06:02:53.459Z,41.77
2022-08-11T06:07:53.405Z,41.47
2022-08-11T06:12:53.353Z,41.47
2022-08-11T06:17:53.301Z,41.57
2022-08-11T06:22:53.267Z,41.87
2022-08-11T06:27:53.200Z,41.97
2022-08-11T06:32:53.146Z,42.27
2022-08-11T06:37:58.632Z,42.18
2022-08-11T06:42:54.057Z,42.38
2022-08-11T06:47:52.981Z,42.18
2022-08-11T06:52:52.941Z,43.08
2022-08-11T06:57:52.893Z,42.58
2022-08-11T07:02:52.840Z,43.58
2022-08-11T07:07:52.794Z,43.88
2022-08-11T07:12:52.770Z,44.18
2022-08-11T07:17:52.688Z,44.89
2022-08-11T07:22:52.645Z,45.29
2022-08-11T07:27:52.573Z,46.29
2022-08-11T07:32:52.542Z,47.30
2022-08-11T07:37:52.816Z,48.70
2022-08-11T07:42:53.435Z,49.21
2022-08-11T07:47:52.387Z,50.21
2022-08-11T07:52:53.872Z,50.81
2022-08-11T07:58:15.162Z,50.91
2022-08-11T08:02:53.232Z,52.22
2022-08-11T08:07:52.181Z,52.62
2022-08-11T08:12:52.128Z,52.42
2022-08-11T08:18:09.440Z,52.82
2022-08-11T08:22:53.491Z,52.32
2022-08-11T08:27:51.984Z,53.22
2022-08-11T08:32:51.928Z,53.02
2022-08-11T08:37:51.894Z,52.82
2022-08-11T08:42:51.814Z,52.32
2022-08-11T08:47:53.403Z,52.82
2022-08-11T08:52:51.726Z,52.12
2022-08-11T08:57:51.709Z,52.42
2022-08-11T09:02:51.629Z,52.82
2022-08-11T09:07:51.580Z,52.22
2022-08-11T09:12:51.809Z,52.22
2022-08-11T09:17:51.479Z,52.42
2022-08-11T09:23:14.491Z,52.51
2022-08-11T09:27:52.375Z,52.82
2022-08-11T09:32:51.323Z,52.42
2022-08-11T09:37:56.012Z,52.62
2022-08-11T09:42:52.221Z,51.92
2022-08-11T09:47:51.179Z,52.22
2022-08-11T09:53:34.574Z,52.42
2022-08-11T09:57:52.082Z,51.72
2022-08-11T10:02:53.262Z,52.22
2022-08-11T10:07:50.988Z,52.01
2022-08-11T10:12:50.910Z,52.32
2022-08-11T10:17:57.930Z,51.72
2022-08-11T10:22:50.808Z,51.72
2022-08-11T10:28:16.915Z,51.11
2022-08-11T10:32:58.488Z,50.71
2022-08-11T10:38:08.876Z,50.91
2022-08-11T10:42:57.801Z,51.61
2022-08-11T10:47:51.566Z,50.71
2022-08-11T10:52:50.516Z,50.81
2022-08-11T10:58:04.118Z,50.71
2022-08-11T11:03:16.780Z,50.91
2022-08-11T11:07:51.371Z,51.42
2022-08-11T11:12:50.311Z,51.81
2022-08-11T11:17:50.267Z,50.71
2022-08-11T11:22:50.207Z,51.01
2022-08-11T11:27:50.145Z,51.42
2022-08-11T11:32:50.112Z,51.72
2022-08-11T12:10:00.789Z,50.14
2022-08-11T12:15:00.744Z,49.56
2022-08-11T12:20:01.711Z,49.07
2022-08-11T12:25:00.641Z,49.75
2022-08-11T12:30:00.589Z,49.75
2022-08-11T12:35:00.534Z,48.88
2022-08-11T12:40:16.527Z,49.46
2022-08-11T12:45:01.438Z,49.17
2022-08-11T12:50:00.385Z,48.97
2022-08-11T12:55:00.355Z,49.17
2022-08-11T13:00:00.283Z,49.65
2022-08-11T13:05:00.232Z,50.52
2022-08-11T13:10:00.184Z,50.14
2022-08-11T13:15:00.136Z,49.75
2022-08-11T13:20:00.099Z,49.17
2022-08-11T13:25:00.024Z,49.27
2022-08-11T13:29:59.977Z,49.27
2022-08-11T13:34:59.922Z,49.27
2022-08-11T13:39:59.925Z,49.17
2022-08-11T13:44:59.816Z,49.85
2022-08-11T13:49:59.766Z,49.46
2022-08-11T13:54:59.712Z,49.37
2022-08-11T13:59:59.670Z,50.04
2022-08-11T14:04:59.616Z,50.04
2022-08-11T14:09:59.563Z,50.04
2022-08-11T14:15:02.198Z,50.24
2022-08-11T14:20:00.466Z,49.95
2022-08-11T14:24:59.410Z,50.04
2022-08-11T14:29:59.358Z,49.75
2022-08-11T14:34:59.309Z,50.24
2022-08-11T14:40:03.295Z,50.43
2022-08-11T14:45:00.218Z,49.95
2022-08-11T14:50:10.233Z,49.85
2022-08-11T14:55:00.100Z,49.85
2022-08-11T14:59:59.052Z,49.75
2022-08-11T15:04:59.010Z,49.65
2022-08-11T15:10:14.514Z,50.14
2022-08-11T15:14:59.898Z,49.85
2022-08-11T15:19:58.844Z,49.85
2022-08-11T15:24:58.890Z,49.85
2022-08-11T15:29:58.740Z,50.24
2022-08-11T15:35:03.305Z,50.72
2022-08-11T15:39:59.931Z,50.24
2022-08-11T15:45:03.698Z,50.62
2022-08-11T15:50:11.095Z,50.14
2022-08-11T15:54:59.496Z,50.33
2022-08-11T15:59:58.462Z,50.92
2022-08-11T16:04:58.442Z,50.62
2022-08-11T16:10:00.581Z,50.72
2022-08-11T16:14:58.294Z,50.72
2022-08-11T16:19:58.219Z,50.52
2022-08-11T16:27:01.744Z,50.72
2022-08-11T16:29:59.128Z,51.01
2022-08-11T16:34:58.093Z,50.82
2022-08-11T16:39:58.153Z,50.52
2022-08-11T16:44:57.969Z,50.43
2022-08-11T16:49:57.916Z,50.92
2022-08-11T16:54:57.867Z,51.30
2022-08-11T16:59:58.174Z,51.30
2022-08-11T17:04:57.773Z,51.59
2022-08-11T17:09:57.718Z,51.20
2022-08-11T17:14:57.688Z,51.78
2022-08-11T17:20:42.730Z,51.59
2022-08-11T17:24:58.587Z,51.40
2022-08-11T17:29:57.509Z,52.08
2022-08-11T17:34:57.454Z,52.46
2022-08-11T17:39:57.758Z,52.46
2022-08-11T17:44:57.355Z,52.27
2022-08-11T17:49:57.305Z,52.27
2022-08-11T17:54:58.242Z,51.98
2022-08-11T17:59:57.272Z,52.08
2022-08-11T18:04:57.153Z,51.20
2022-08-11T18:09:57.079Z,51.98
2022-08-11T18:14:57.035Z,51.78
2022-08-11T18:19:56.997Z,51.30
2022-08-11T18:24:56.912Z,52.27
2022-08-11T18:29:56.881Z,51.98
2022-08-11T18:34:56.884Z,51.78
2022-08-11T18:39:56.935Z,52.17
2022-08-11T18:44:56.705Z,51.98
2022-08-11T18:50:03.711Z,52.17
2022-08-11T18:54:57.604Z,52.36
2022-08-11T18:59:56.548Z,52.36
2022-08-11T19:04:56.511Z,52.36
2022-08-11T19:09:56.440Z,52.56
2022-08-11T19:14:56.399Z,52.66
2022-08-11T19:19:56.321Z,52.36
2022-08-11T19:24:56.290Z,52.27
2022-08-11T19:30:07.279Z,51.88
2022-08-11T19:34:57.258Z,52.46
2022-08-11T19:39:56.185Z,52.08
2022-08-11T19:44:56.077Z,51.98
2022-08-11T19:49:56.034Z,51.68
2022-08-11T19:54:55.973Z,51.40
2022-08-11T19:59:55.926Z,51.40
2022-08-11T20:04:55.854Z,51.40
2022-08-11T20:10:04.917Z,51.59
2022-08-11T20:14:56.770Z,51.40
2022-08-11T20:19:57.084Z,51.59
2022-08-11T20:24:56.652Z,51.68
2022-08-11T20:29:55.609Z,51.59
2022-08-11T20:34:55.558Z,51.40
2022-08-11T20:39:55.596Z,51.30
2022-08-11T20:44:55.461Z,52.08
2022-08-11T20:49:58.560Z,52.08
2022-08-11T20:54:55.339Z,51.88
2022-08-11T20:59:56.720Z,51.78
2022-08-11T21:04:55.415Z,51.40
2022-08-11T21:10:01.091Z,51.20
2022-08-11T21:14:56.125Z,50.92
2022-08-11T21:20:01.637Z,50.92
2022-08-11T21:24:56.013Z,51.20
2022-08-11T21:29:54.964Z,51.10
2022-08-11T21:34:54.904Z,51.01
2022-08-11T21:39:54.993Z,51.20
2022-08-11T21:44:54.804Z,51.20
2022-08-11T21:49:54.749Z,51.01
2022-08-11T21:54:54.690Z,51.01
2022-08-11T21:59:54.639Z,51.59
2022-08-11T22:04:54.586Z,51.88
2022-08-11T22:09:54.539Z,51.40
2022-08-11T22:14:54.482Z,51.50
2022-08-11T22:20:01.493Z,51.10
2022-08-11T22:24:54.375Z,51.59
2022-08-11T22:29:54.317Z,51.88
2022-08-11T22:34:54.266Z,51.88
2022-08-11T22:39:59.935Z,51.68
2022-08-11T22:44:54.188Z,51.59
2022-08-11T22:49:57.172Z,51.10
2022-08-11T22:54:54.048Z,51.50
2022-08-11T22:59:53.998Z,51.68
2022-08-11T23:04:53.942Z,51.40
2022-08-11T23:09:53.891Z,51.20
2022-08-11T23:14:53.836Z,51.68
2022-08-11T23:19:59.994Z,51.59
2022-08-11T23:24:54.726Z,51.78
2022-08-11T23:29:53.668Z,51.10
